Time;durP1;ratioP1;P1;durP2;ratioP2;P2;SDS_P1;SDS_P2;PMS_P1;PMS_P2;Temp;Humidity;BMP_temperature;BMP_pressure;BME280_temperature;BME280_humidity;BME280_pressure;Samples;Min_cycle;Max_cycle;Signal;HPM_P1;HPM_P2
2024/01/05 00:00:15;;;;;;;30.73;21.90;;;;;;;;;;5014010;28;20033;-64
2024/01/05 00:02:40;;;;;;;31.23;22.90;;;;;;;;;;5013851;28;20029;-64
2024/01/05 00:05:07;;;;;;;35.50;23.00;;;;;;;;;;5017925;28;20062;-64
2024/01/05 00:07:33;;;;;;;32.25;23.60;;;;;;;;;;5005410;28;20030;-64
2024/01/05 00:09:59;;;;;;;34.97;24.27;;;;;;;;;;5013830;28;20095;-64
2024/01/05 00:12:25;;;;;;;36.40;25.75;;;;;;;;;;5014033;28;20034;-64
2024/01/05 00:14:51;;;;;;;41.03;26.93;;;;;;;;;;5013938;28;20116;-64
2024/01/05 00:17:17;;;;;;;36.22;24.83;;;;;;;;;;5013541;28;20050;-64
2024/01/05 00:19:43;;;;;;;37.78;26.25;;;;;;;;;;5013830;28;20022;-64
2024/01/05 00:22:09;;;;;;;33.95;26.92;;;;;;;;;;5012235;28;20402;-65
2024/01/05 00:24:37;;;;;;;36.80;27.17;;;;;;;;;;5013347;28;20100;-64
2024/01/05 00:27:03;;;;;;;41.40;28.90;;;;;;;;;;5013664;28;20372;-64
2024/01/05 00:29:29;;;;;;;38.87;26.83;;;;;;;;;;5013769;28;20377;-64
2024/01/05 00:31:55;;;;;;;38.70;27.42;;;;;;;;;;5013484;28;20026;-64
2024/01/05 00:34:21;;;;;;;38.00;28.33;;;;;;;;;;5013341;28;20119;-64
2024/01/05 00:36:47;;;;;;;42.65;28.20;;;;;;;;;;5013486;28;20459;-64
2024/01/05 00:39:16;;;;;;;43.15;29.88;;;;;;;;;;5022237;28;20045;-64
2024/01/05 00:41:42;;;;;;;40.88;29.40;;;;;;;;;;5017437;28;20408;-64
2024/01/05 00:44:08;;;;;;;45.40;29.95;;;;;;;;;;5013259;28;20032;-64
2024/01/05 00:46:37;;;;;;;45.60;30.80;;;;;;;;;;5012922;28;20141;-64
2024/01/05 00:49:03;;;;;;;42.13;30.38;;;;;;;;;;5013154;28;20054;-64
2024/01/05 01:00:39;;;;;;;43.67;31.02;;;;;;;;;;5002076;28;20116;-64
2024/01/05 01:03:17;;;;;;;48.30;31.58;;;;;;;;;;5011489;28;20057;-64
2024/01/05 01:05:44;;;;;;;42.55;29.98;;;;;;;;;;5012675;28;20038;-64
2024/01/05 01:14:17;;;;;;;46.17;31.23;;;;;;;;;;5003353;28;20109;-64
2024/01/05 01:16:43;;;;;;;46.75;31.25;;;;;;;;;;5012415;28;20483;-64
2024/01/05 01:19:09;;;;;;;44.20;31.77;;;;;;;;;;5012499;28;20030;-64
2024/01/05 01:21:35;;;;;;;46.45;31.38;;;;;;;;;;5012504;28;20403;-64
2024/01/05 01:24:01;;;;;;;48.50;30.90;;;;;;;;;;5012355;28;20033;-64
2024/01/05 01:26:27;;;;;;;47.08;32.42;;;;;;;;;;5012426;28;20041;-64
2024/01/05 01:28:53;;;;;;;45.67;30.60;;;;;;;;;;5012481;28;20030;-64
2024/01/05 01:31:19;;;;;;;45.38;30.85;;;;;;;;;;5012587;28;20029;-64
2024/01/05 01:33:45;;;;;;;43.50;30.35;;;;;;;;;;5012372;28;20428;-64
2024/01/05 01:36:12;;;;;;;45.92;30.40;;;;;;;;;;5012298;28;20026;-64
2024/01/05 01:38:38;;;;;;;47.42;31.02;;;;;;;;;;5016297;28;20506;-64
2024/01/05 01:41:04;;;;;;;47.90;28.92;;;;;;;;;;5020287;28;20030;-64
2024/01/05 01:43:30;;;;;;;45.50;31.42;;;;;;;;;;5012163;28;20022;-64
2024/01/05 01:46:00;;;;;;;41.05;29.65;;;;;;;;;;5010581;28;20399;-64
2024/01/05 01:48:27;;;;;;;43.23;29.30;;;;;;;;;;5011969;28;20087;-64
2024/01/05 01:50:55;;;;;;;45.67;30.42;;;;;;;;;;5010761;28;20548;-64
2024/01/05 01:53:22;;;;;;;44.55;30.67;;;;;;;;;;5012058;28;20033;-64
2024/01/05 01:55:49;;;;;;;44.40;29.38;;;;;;;;;;5012093;28;20301;-64
2024/01/05 01:58:16;;;;;;;42.67;31.23;;;;;;;;;;5012136;28;20034;-64
2024/01/05 02:00:43;;;;;;;49.60;31.38;;;;;;;;;;5011812;28;20807;-64
2024/01/05 02:03:09;;;;;;;47.90;32.15;;;;;;;;;;5011862;28;20056;-64
2024/01/05 02:05:35;;;;;;;47.33;32.42;;;;;;;;;;5011449;28;20042;-64
2024/01/05 02:08:01;;;;;;;48.30;31.73;;;;;;;;;;5011957;28;20050;-64
2024/01/05 02:10:27;;;;;;;47.08;32.05;;;;;;;;;;5011664;28;20037;-64
2024/01/05 02:12:53;;;;;;;46.10;32.42;;;;;;;;;;5012134;28;20026;-64
2024/01/05 02:15:19;;;;;;;47.92;31.75;;;;;;;;;;5011377;28;20037;-64
2024/01/05 02:26:56;;;;;;;50.95;34.13;;;;;;;;;;5008582;28;20032;-64
2024/01/05 02:29:22;;;;;;;51.10;34.07;;;;;;;;;;5010356;28;20085;-64
2024/01/05 02:31:48;;;;;;;53.08;34.90;;;;;;;;;;5011682;28;20025;-64
2024/01/05 02:34:14;;;;;;;49.80;34.45;;;;;;;;;;5011611;28;20113;-64
2024/01/05 02:36:40;;;;;;;52.13;33.60;;;;;;;;;;5011696;28;20472;-64
2024/01/05 02:39:06;;;;;;;52.97;35.83;;;;;;;;;;5019572;28;20053;-64
2024/01/05 02:41:33;;;;;;;50.95;34.22;;;;;;;;;;5015584;28;20030;-64
2024/01/05 02:43:59;;;;;;;52.53;35.03;;;;;;;;;;5011765;28;20332;-64
2024/01/05 02:46:25;;;;;;;58.75;34.92;;;;;;;;;;5011334;28;20029;-64
2024/01/05 02:48:51;;;;;;;54.13;36.30;;;;;;;;;;5011471;28;20044;-64
2024/01/05 02:51:17;;;;;;;55.05;36.05;;;;;;;;;;5011671;28;20119;-64
2024/01/05 02:53:43;;;;;;;54.17;35.58;;;;;;;;;;5011749;28;20061;-64
2024/01/05 02:56:09;;;;;;;52.88;35.70;;;;;;;;;;5011443;28;20040;-64
2024/01/05 02:58:35;;;;;;;49.97;35.13;;;;;;;;;;5010791;28;20126;-64
2024/01/05 03:01:01;;;;;;;54.25;36.80;;;;;;;;;;5010378;28;20531;-64
2024/01/05 03:03:27;;;;;;;50.95;36.03;;;;;;;;;;5011411;28;20068;-64
2024/01/05 03:05:53;;;;;;;58.08;37.90;;;;;;;;;;5009964;28;20034;-64
2024/01/05 03:08:19;;;;;;;54.55;34.85;;;;;;;;;;5025374;28;20176;-64
2024/01/05 03:10:45;;;;;;;53.95;36.35;;;;;;;;;;5011264;28;20030;-64
2024/01/05 03:13:11;;;;;;;52.95;35.67;;;;;;;;;;5011699;28;20054;-64
2024/01/05 03:15:37;;;;;;;56.57;36.63;;;;;;;;;;5011465;28;20436;-64
2024/01/05 03:18:03;;;;;;;50.37;34.17;;;;;;;;;;5014003;28;20022;-64
2024/01/05 03:20:29;;;;;;;52.45;34.97;;;;;;;;;;5015146;28;20030;-64
2024/01/05 03:22:55;;;;;;;53.70;36.43;;;;;;;;;;5014917;28;20360;-64
2024/01/05 03:25:21;;;;;;;51.63;35.80;;;;;;;;;;5014588;28;20038;-64
2024/01/05 03:27:47;;;;;;;56.35;37.08;;;;;;;;;;5014919;28;20024;-64
2024/01/05 03:30:13;;;;;;;56.95;37.70;;;;;;;;;;5023188;28;20051;-64
2024/01/05 03:32:39;;;;;;;59.72;38.03;;;;;;;;;;5018362;28;20096;-64
2024/01/05 03:35:05;;;;;;;49.00;35.63;;;;;;;;;;5014477;28;20018;-64
2024/01/05 03:37:31;;;;;;;54.10;37.63;;;;;;;;;;5014782;28;20116;-64
2024/01/05 03:40:15;;;;;;;53.73;36.17;;;;;;;;;;5012814;28;20076;-64
2024/01/05 03:42:41;;;;;;;59.90;35.70;;;;;;;;;;5013049;28;20056;-64
2024/01/05 03:45:08;;;;;;;57.30;35.70;;;;;;;;;;5014282;28;20114;-64
2024/01/05 03:47:34;;;;;;;53.47;35.97;;;;;;;;;;5014273;28;20400;-64
2024/01/05 03:50:01;;;;;;;51.13;35.23;;;;;;;;;;5014248;28;20026;-64
2024/01/05 03:52:27;;;;;;;61.45;36.97;;;;;;;;;;5012589;28;20113;-64
2024/01/05 03:54:53;;;;;;;53.47;36.80;;;;;;;;;;5014238;28;20169;-64
2024/01/05 03:57:31;;;;;;;55.88;37.58;;;;;;;;;;5012864;28;20033;-64
2024/01/05 03:59:57;;;;;;;52.65;35.50;;;;;;;;;;5001433;28;20522;-63
2024/01/05 04:02:23;;;;;;;54.07;36.47;;;;;;;;;;5012629;28;20380;-64
2024/01/05 04:04:49;;;;;;;58.22;38.45;;;;;;;;;;5014081;28;20029;-64
2024/01/05 04:07:16;;;;;;;56.50;38.53;;;;;;;;;;5011678;28;20136;-64
2024/01/05 04:09:42;;;;;;;53.75;37.55;;;;;;;;;;5011888;28;20121;-64
2024/01/05 04:12:09;;;;;;;59.58;38.95;;;;;;;;;;5010907;28;20085;-64
2024/01/05 04:14:35;;;;;;;57.80;38.35;;;;;;;;;;5010936;28;20445;-64
2024/01/05 04:17:01;;;;;;;58.33;36.45;;;;;;;;;;5009568;28;20022;-64
2024/01/05 04:19:29;;;;;;;52.95;35.92;;;;;;;;;;5011298;28;20037;-64
2024/01/05 04:21:55;;;;;;;56.60;37.77;;;;;;;;;;5016050;28;20022;-64
2024/01/05 04:24:21;;;;;;;55.40;36.38;;;;;;;;;;5013142;28;20096;-63
2024/01/05 04:26:48;;;;;;;52.90;36.93;;;;;;;;;;5013726;28;20486;-64
2024/01/05 04:29:14;;;;;;;54.73;36.30;;;;;;;;;;5031736;28;20495;-64
2024/01/05 04:31:40;;;;;;;55.30;37.40;;;;;;;;;;5019189;28;20068;-63
2024/01/05 04:34:06;;;;;;;51.43;35.83;;;;;;;;;;5023635;28;20171;-62
2024/01/05 04:36:32;;;;;;;59.13;38.03;;;;;;;;;;5013236;28;20054;-64
2024/01/05 04:39:07;;;;;;;59.17;36.90;;;;;;;;;;5011614;28;20053;-63
2024/01/05 04:41:35;;;;;;;55.37;37.53;;;;;;;;;;5025615;28;20041;-64
2024/01/05 04:44:01;;;;;;;51.67;35.83;;;;;;;;;;5013478;28;20034;-63
2024/01/05 04:46:27;;;;;;;54.23;37.40;;;;;;;;;;5013098;28;20480;-64
2024/01/05 04:48:53;;;;;;;56.90;37.47;;;;;;;;;;5011644;28;20480;-63
2024/01/05 04:51:19;;;;;;;53.78;37.38;;;;;;;;;;5013381;28;20125;-63
2024/01/05 04:53:46;;;;;;;55.70;36.95;;;;;;;;;;5012884;28;20076;-63
2024/01/05 04:56:12;;;;;;;55.30;35.97;;;;;;;;;;5013205;28;20442;-64
2024/01/05 04:58:38;;;;;;;56.77;38.03;;;;;;;;;;5026807;28;20056;-63
2024/01/05 05:01:04;;;;;;;53.67;37.40;;;;;;;;;;5013105;28;20046;-63
2024/01/05 05:03:30;;;;;;;58.92;40.90;;;;;;;;;;5012794;28;20061;-63
2024/01/05 05:05:57;;;;;;;57.83;37.70;;;;;;;;;;5011274;28;20084;-63
2024/01/05 05:08:23;;;;;;;59.23;37.83;;;;;;;;;;5012985;28;20029;-63
2024/01/05 05:10:49;;;;;;;56.75;37.63;;;;;;;;;;5012609;28;20030;-63
2024/01/05 05:13:15;;;;;;;59.87;39.37;;;;;;;;;;5012779;28;20037;-63
2024/01/05 05:15:41;;;;;;;53.07;36.40;;;;;;;;;;5012458;28;20141;-63
2024/01/05 05:18:07;;;;;;;52.07;36.50;;;;;;;;;;5011203;28;20423;-63
2024/01/05 05:20:33;;;;;;;55.65;37.60;;;;;;;;;;5012727;28;20029;-63
2024/01/05 05:22:59;;;;;;;54.83;36.60;;;;;;;;;;5012466;28;20472;-63
2024/01/05 05:25:26;;;;;;;54.13;37.53;;;;;;;;;;5012404;28;20042;-63
2024/01/05 05:27:52;;;;;;;56.83;37.90;;;;;;;;;;5012321;28;20024;-63
2024/01/05 05:30:18;;;;;;;60.90;39.80;;;;;;;;;;5012253;28;20021;-63
2024/01/05 05:32:44;;;;;;;56.83;39.10;;;;;;;;;;5026064;28;20034;-63
2024/01/05 05:35:10;;;;;;;56.28;38.08;;;;;;;;;;5012337;28;20033;-63
2024/01/05 05:37:36;;;;;;;60.53;38.67;;;;;;;;;;5012260;28;20104;-63
2024/01/05 05:40:03;;;;;;;55.23;39.27;;;;;;;;;;5011484;28;20116;-63
2024/01/05 05:42:29;;;;;;;63.35;40.22;;;;;;;;;;5012154;28;20024;-63
2024/01/05 05:44:55;;;;;;;59.25;39.90;;;;;;;;;;5012223;28;20041;-64
2024/01/05 05:47:21;;;;;;;60.07;39.57;;;;;;;;;;5012007;28;20018;-63
2024/01/05 05:49:47;;;;;;;55.63;37.63;;;;;;;;;;5012125;28;20033;-63
2024/01/05 05:52:13;;;;;;;62.10;38.97;;;;;;;;;;5011943;28;20109;-63
2024/01/05 05:54:39;;;;;;;59.90;39.63;;;;;;;;;;5012017;28;20022;-63
2024/01/05 05:57:07;;;;;;;59.33;39.53;;;;;;;;;;4999095;28;20108;-63
2024/01/05 05:59:33;;;;;;;66.47;39.90;;;;;;;;;;5012122;28;20515;-64
2024/01/05 06:01:59;;;;;;;63.40;39.80;;;;;;;;;;5011796;28;20021;-63
2024/01/05 06:04:25;;;;;;;63.37;41.37;;;;;;;;;;5011809;28;20049;-63
2024/01/05 06:06:51;;;;;;;62.15;40.38;;;;;;;;;;5011816;28;20079;-63
2024/01/05 06:09:17;;;;;;;62.17;42.10;;;;;;;;;;5012230;28;20029;-63
2024/01/05 06:11:43;;;;;;;58.87;40.90;;;;;;;;;;5011898;28;20379;-63
2024/01/05 06:14:09;;;;;;;62.50;41.83;;;;;;;;;;5011630;28;20017;-63
2024/01/05 06:16:35;;;;;;;62.83;41.00;;;;;;;;;;5011699;28;20034;-63
2024/01/05 06:19:02;;;;;;;62.33;41.73;;;;;;;;;;5011701;28;20476;-63
2024/01/05 06:21:28;;;;;;;67.03;42.30;;;;;;;;;;5010865;28;20105;-63
2024/01/05 06:23:54;;;;;;;65.43;42.50;;;;;;;;;;5011622;28;20133;-63
2024/01/05 06:26:20;;;;;;;61.85;41.28;;;;;;;;;;5007097;28;20475;-63
2024/01/05 06:28:46;;;;;;;59.80;41.60;;;;;;;;;;5011768;28;20029;-63
2024/01/05 06:31:12;;;;;;;63.20;41.20;;;;;;;;;;5011600;28;20052;-63
2024/01/05 06:33:38;;;;;;;68.73;42.03;;;;;;;;;;5011850;28;20030;-63
2024/01/05 06:36:05;;;;;;;66.40;42.53;;;;;;;;;;5011624;28;20453;-63
2024/01/05 06:38:31;;;;;;;59.90;42.53;;;;;;;;;;5010042;28;20050;-63
2024/01/05 06:40:57;;;;;;;60.80;39.80;;;;;;;;;;5011470;28;20534;-63
2024/01/05 06:43:23;;;;;;;60.50;41.07;;;;;;;;;;5011532;28;20021;-63
2024/01/05 06:45:49;;;;;;;62.23;42.13;;;;;;;;;;5011493;28;20132;-63
2024/01/05 06:48:15;;;;;;;61.03;40.87;;;;;;;;;;5011278;28;20057;-63
2024/01/05 06:50:41;;;;;;;63.40;42.13;;;;;;;;;;5011518;28;20034;-63
2024/01/05 06:53:07;;;;;;;63.10;41.63;;;;;;;;;;5014355;28;20033;-63
2024/01/05 06:55:33;;;;;;;64.50;42.17;;;;;;;;;;5015477;28;20056;-63
2024/01/05 06:58:01;;;;;;;63.42;41.15;;;;;;;;;;5015033;28;20033;-63
2024/01/05 07:00:28;;;;;;;63.57;41.70;;;;;;;;;;5015031;28;20022;-63
2024/01/05 07:02:54;;;;;;;61.43;40.50;;;;;;;;;;5015041;28;20107;-63
2024/01/05 07:05:20;;;;;;;67.40;43.83;;;;;;;;;;5015261;28;20038;-63
2024/01/05 07:07:47;;;;;;;65.47;41.27;;;;;;;;;;5014983;28;20111;-63
2024/01/05 07:10:13;;;;;;;67.97;43.88;;;;;;;;;;5015049;28;20053;-63
2024/01/05 07:18:47;;;;;;;65.53;42.93;;;;;;;;;;5001644;28;20097;-63
2024/01/05 07:21:13;;;;;;;67.00;43.72;;;;;;;;;;5029678;28;20200;-63
2024/01/05 07:23:39;;;;;;;66.30;43.20;;;;;;;;;;5014658;28;20029;-63
2024/01/05 07:29:09;;;;;;;61.13;41.45;;;;;;;;;;4997953;28;20101;-63
2024/01/05 07:31:35;;;;;;;66.70;43.63;;;;;;;;;;5013667;28;20029;-64
2024/01/05 07:34:02;;;;;;;63.20;42.50;;;;;;;;;;5014435;28;20144;-64
2024/01/05 07:36:28;;;;;;;62.47;42.03;;;;;;;;;;5014364;28;20022;-64
2024/01/05 07:38:58;;;;;;;63.00;40.78;;;;;;;;;;5014539;28;20099;-63
2024/01/05 07:41:25;;;;;;;59.40;39.77;;;;;;;;;;5014500;28;20112;-63
2024/01/05 07:43:51;;;;;;;62.33;41.27;;;;;;;;;;5014204;28;20106;-63
2024/01/05 07:46:17;;;;;;;59.17;40.80;;;;;;;;;;5014077;28;20034;-63
2024/01/05 07:48:43;;;;;;;62.87;40.77;;;;;;;;;;5014163;28;20415;-63
2024/01/05 07:51:10;;;;;;;55.27;38.47;;;;;;;;;;5012803;28;20047;-63
2024/01/05 07:53:36;;;;;;;60.33;40.70;;;;;;;;;;5013981;28;20022;-63
2024/01/05 07:56:03;;;;;;;60.60;40.13;;;;;;;;;;5014366;28;20037;-64
2024/01/05 07:58:29;;;;;;;58.13;40.28;;;;;;;;;;5013916;28;20030;-63
2024/01/05 08:00:55;;;;;;;61.72;40.75;;;;;;;;;;5014122;28;20510;-63
2024/01/05 08:03:21;;;;;;;59.47;42.67;;;;;;;;;;5013571;28;20109;-63
2024/01/05 08:05:47;;;;;;;61.60;40.33;;;;;;;;;;5013841;28;20041;-63
2024/01/05 08:08:14;;;;;;;61.57;41.27;;;;;;;;;;5013808;28;20030;-64
2024/01/05 08:10:40;;;;;;;61.30;40.73;;;;;;;;;;5014273;28;20069;-63
2024/01/05 08:13:06;;;;;;;62.43;40.80;;;;;;;;;;5014076;28;20080;-63
2024/01/05 08:15:32;;;;;;;61.17;39.53;;;;;;;;;;5013894;28;20033;-63
2024/01/05 08:17:59;;;;;;;54.10;36.93;;;;;;;;;;5010876;28;20041;-64
2024/01/05 08:20:25;;;;;;;53.00;37.90;;;;;;;;;;5009985;28;20113;-64
2024/01/05 08:22:51;;;;;;;53.70;37.60;;;;;;;;;;5011999;28;20022;-64
2024/01/05 08:25:18;;;;;;;52.43;36.73;;;;;;;;;;5005370;28;20043;-63
2024/01/05 08:27:44;;;;;;;58.27;38.70;;;;;;;;;;5028198;28;20036;-63
2024/01/05 08:30:13;;;;;;;49.90;35.47;;;;;;;;;;5025280;28;20034;-63
2024/01/05 08:35:43;;;;;;;49.00;34.43;;;;;;;;;;5011522;28;20029;-63
2024/01/05 08:38:09;;;;;;;49.93;35.60;;;;;;;;;;5023527;28;20026;-62
2024/01/05 08:40:35;;;;;;;48.13;33.50;;;;;;;;;;5021470;28;20506;-63
2024/01/05 08:43:02;;;;;;;52.47;37.13;;;;;;;;;;5017383;28;20033;-63
2024/01/05 08:45:29;;;;;;;46.37;34.33;;;;;;;;;;5021242;28;20045;-63
2024/01/05 08:47:55;;;;;;;46.13;31.75;;;;;;;;;;5020711;28;20026;-63
2024/01/05 08:50:21;;;;;;;49.17;33.90;;;;;;;;;;5023368;28;20036;-63
2024/01/05 08:52:58;;;;;;;45.30;33.60;;;;;;;;;;5018264;28;20022;-63
2024/01/05 08:55:24;;;;;;;45.73;33.30;;;;;;;;;;5021588;28;20036;-64
2024/01/05 08:57:50;;;;;;;45.10;29.83;;;;;;;;;;5031807;28;20068;-63
2024/01/05 09:00:16;;;;;;;42.53;30.87;;;;;;;;;;5028633;28;20053;-63
2024/01/05 09:02:43;;;;;;;40.97;31.37;;;;;;;;;;5011571;28;20025;-64
2024/01/05 09:05:09;;;;;;;42.63;31.57;;;;;;;;;;5010563;28;20105;-63
2024/01/05 09:07:35;;;;;;;42.73;30.30;;;;;;;;;;5009927;28;20022;-63
2024/01/05 09:10:01;;;;;;;39.63;28.70;;;;;;;;;;5010397;28;20026;-63
2024/01/05 09:12:27;;;;;;;39.22;29.75;;;;;;;;;;5024272;28;20025;-63
2024/01/05 09:14:54;;;;;;;43.40;31.23;;;;;;;;;;5027210;28;20021;-64
2024/01/05 09:17:20;;;;;;;39.53;29.27;;;;;;;;;;5022597;28;20032;-63
2024/01/05 09:19:46;;;;;;;37.73;28.07;;;;;;;;;;5021626;28;20207;-63
2024/01/05 09:22:12;;;;;;;37.37;28.23;;;;;;;;;;5017289;28;20068;-64
2024/01/05 09:24:39;;;;;;;41.20;29.53;;;;;;;;;;5012471;28;20117;-64
2024/01/05 09:27:05;;;;;;;39.57;29.77;;;;;;;;;;5011264;28;20026;-63
2024/01/05 09:29:31;;;;;;;37.27;28.53;;;;;;;;;;5026129;28;20022;-63
2024/01/05 09:31:57;;;;;;;37.90;29.40;;;;;;;;;;5012280;28;20091;-63
2024/01/05 09:34:23;;;;;;;39.77;30.03;;;;;;;;;;5012291;28;20033;-63
2024/01/05 09:36:50;;;;;;;35.27;29.10;;;;;;;;;;5012148;28;20022;-63
2024/01/05 09:39:16;;;;;;;35.37;27.77;;;;;;;;;;5012373;28;20056;-63
2024/01/05 09:41:48;;;;;;;39.03;28.07;;;;;;;;;;5012088;28;20093;-63
2024/01/05 09:47:18;;;;;;;38.07;28.73;;;;;;;;;;4995847;28;20030;-63
2024/01/05 09:49:45;;;;;;;35.30;27.10;;;;;;;;;;5007088;28;20021;-63
2024/01/05 09:52:15;;;;;;;36.03;27.33;;;;;;;;;;5012540;28;20049;-63
2024/01/05 09:54:42;;;;;;;36.72;27.45;;;;;;;;;;5011675;28;20054;-63
2024/01/05 09:57:09;;;;;;;34.57;26.73;;;;;;;;;;5010573;28;20111;-63
2024/01/05 09:59:35;;;;;;;34.77;25.43;;;;;;;;;;5010685;28;20022;-63
2024/01/05 10:02:03;;;;;;;32.93;24.93;;;;;;;;;;4998231;28;20057;-63
2024/01/05 10:04:29;;;;;;;33.40;25.50;;;;;;;;;;5011867;28;20033;-63
2024/01/05 10:07:00;;;;;;;35.60;26.27;;;;;;;;;;5012063;28;20383;-63
2024/01/05 10:09:27;;;;;;;33.08;25.23;;;;;;;;;;5011272;28;20069;-63
2024/01/05 10:11:54;;;;;;;31.10;23.73;;;;;;;;;;5009266;28;20022;-63
2024/01/05 10:14:24;;;;;;;37.50;27.00;;;;;;;;;;5012385;28;20030;-63
2024/01/05 10:16:50;;;;;;;34.45;25.55;;;;;;;;;;5011781;28;20120;-63
2024/01/05 10:19:17;;;;;;;29.98;23.35;;;;;;;;;;5018645;28;20089;-63
2024/01/05 10:21:44;;;;;;;35.57;25.20;;;;;;;;;;5015243;28;20025;-63
2024/01/05 10:24:21;;;;;;;33.50;24.57;;;;;;;;;;5011429;28;20117;-63
2024/01/05 10:26:47;;;;;;;32.00;23.53;;;;;;;;;;5014310;28;20108;-63
2024/01/05 10:29:24;;;;;;;31.53;23.57;;;;;;;;;;5015951;28;20018;-63
2024/01/05 10:31:50;;;;;;;34.10;24.83;;;;;;;;;;5013869;28;20088;-64
2024/01/05 10:34:16;;;;;;;31.33;22.07;;;;;;;;;;5015951;28;20445;-63
2024/01/05 10:36:42;;;;;;;33.00;23.20;;;;;;;;;;5015859;28;20034;-63
2024/01/05 10:39:09;;;;;;;29.63;22.47;;;;;;;;;;5015446;28;20045;-63
2024/01/05 10:41:35;;;;;;;30.40;23.02;;;;;;;;;;5015500;28;20029;-63
2024/01/05 10:44:03;;;;;;;30.73;22.53;;;;;;;;;;5013955;28;20507;-63
2024/01/05 10:46:29;;;;;;;29.50;22.47;;;;;;;;;;5015378;28;20026;-63
2024/01/05 10:48:57;;;;;;;32.50;22.40;;;;;;;;;;5015304;28;20037;-63
2024/01/05 10:51:23;;;;;;;28.60;22.27;;;;;;;;;;5015351;28;20101;-63
2024/01/05 10:53:50;;;;;;;32.70;24.40;;;;;;;;;;5015295;28;20037;-63
2024/01/05 10:56:18;;;;;;;28.73;21.70;;;;;;;;;;5013866;28;20030;-63
2024/01/05 10:58:44;;;;;;;29.13;22.20;;;;;;;;;;5013885;28;20112;-63
2024/01/05 11:01:13;;;;;;;28.03;21.57;;;;;;;;;;5015059;28;20033;-63
2024/01/05 11:03:41;;;;;;;28.73;22.67;;;;;;;;;;5013751;28;20025;-63
2024/01/05 11:06:08;;;;;;;28.48;21.50;;;;;;;;;;5015241;28;20099;-63
2024/01/05 11:08:37;;;;;;;31.63;22.50;;;;;;;;;;5014996;28;20010;-63
2024/01/05 11:11:19;;;;;;;28.43;21.20;;;;;;;;;;5013637;28;20041;-63
2024/01/05 11:13:45;;;;;;;29.05;22.30;;;;;;;;;;5001692;28;20137;-63
2024/01/05 11:16:17;;;;;;;30.03;21.87;;;;;;;;;;5008470;28;20487;-63
2024/01/05 11:18:57;;;;;;;27.73;22.07;;;;;;;;;;5003991;28;20109;-64
2024/01/05 11:21:25;;;;;;;29.37;21.30;;;;;;;;;;5022823;28;20053;-63
2024/01/05 11:23:54;;;;;;;28.10;22.13;;;;;;;;;;5014682;28;20033;-64
2024/01/05 11:26:34;;;;;;;28.38;22.13;;;;;;;;;;5014680;28;20026;-64
2024/01/05 11:29:00;;;;;;;28.10;20.00;;;;;;;;;;5014540;28;20101;-64
2024/01/05 11:31:59;;;;;;;28.87;20.97;;;;;;;;;;5014653;28;20541;-64
2024/01/05 11:34:34;;;;;;;25.63;20.50;;;;;;;;;;4992093;28;20443;-64
2024/01/05 11:37:04;;;;;;;29.77;22.13;;;;;;;;;;5013945;28;20104;-63
2024/01/05 11:39:46;;;;;;;27.00;20.90;;;;;;;;;;5012747;28;20088;-63
2024/01/05 11:42:29;;;;;;;26.40;19.92;;;;;;;;;;5014447;28;20038;-63
2024/01/05 11:44:56;;;;;;;24.60;19.30;;;;;;;;;;5003136;28;20095;-63
2024/01/05 11:50:36;;;;;;;24.37;18.10;;;;;;;;;;5007042;28;20033;-63
2024/01/05 11:53:08;;;;;;;19.02;15.30;;;;;;;;;;5007388;28;20022;-63
2024/01/05 11:55:40;;;;;;;19.23;14.77;;;;;;;;;;5014324;28;20030;-63
2024/01/05 11:58:12;;;;;;;21.75;16.40;;;;;;;;;;5014119;28;20029;-63
2024/01/05 12:00:44;;;;;;;21.05;15.98;;;;;;;;;;5014546;28;20022;-63
2024/01/05 12:03:10;;;;;;;18.95;15.65;;;;;;;;;;5014081;28;20021;-63
2024/01/05 12:05:37;;;;;;;22.83;16.50;;;;;;;;;;5014120;28;20041;-63
2024/01/05 12:08:03;;;;;;;19.77;15.23;;;;;;;;;;5013904;28;20046;-63
2024/01/05 12:10:29;;;;;;;18.83;15.50;;;;;;;;;;5014147;28;20403;-64
2024/01/05 12:12:56;;;;;;;24.63;17.08;;;;;;;;;;5012419;28;20049;-64
2024/01/05 12:15:22;;;;;;;23.50;18.50;;;;;;;;;;5013885;28;20097;-64
2024/01/05 12:17:49;;;;;;;23.30;17.43;;;;;;;;;;5013650;28;20383;-63
2024/01/05 12:20:15;;;;;;;25.00;17.97;;;;;;;;;;5027422;28;20105;-63
2024/01/05 12:22:42;;;;;;;26.60;20.03;;;;;;;;;;5012012;28;20381;-63
2024/01/05 12:25:08;;;;;;;23.20;18.53;;;;;;;;;;5013613;28;20091;-63
2024/01/05 12:27:37;;;;;;;28.23;19.50;;;;;;;;;;5013761;28;20064;-63
2024/01/05 12:30:05;;;;;;;27.30;19.37;;;;;;;;;;5013353;28;20361;-63
2024/01/05 12:32:35;;;;;;;30.00;21.25;;;;;;;;;;5012054;28;20029;-63
2024/01/05 12:35:01;;;;;;;29.38;19.80;;;;;;;;;;5013436;28;20026;-64
2024/01/05 12:37:27;;;;;;;29.63;19.27;;;;;;;;;;5013395;28;20025;-64
2024/01/05 12:39:53;;;;;;;21.17;16.70;;;;;;;;;;5011451;28;20057;-63
2024/01/05 12:48:33;;;;;;;22.23;16.98;;;;;;;;;;5001931;28;20037;-64
2024/01/05 12:51:03;;;;;;;32.27;19.57;;;;;;;;;;5009914;28;20103;-64
2024/01/05 12:53:29;;;;;;;26.57;18.50;;;;;;;;;;5011630;28;20391;-64
2024/01/05 12:55:55;;;;;;;21.93;17.47;;;;;;;;;;5012922;28;20525;-64
2024/01/05 12:58:21;;;;;;;23.40;16.53;;;;;;;;;;5012887;28;20053;-64
2024/01/05 13:00:47;;;;;;;23.37;16.00;;;;;;;;;;5012781;28;20030;-64
2024/01/05 13:03:15;;;;;;;19.27;14.47;;;;;;;;;;5013332;28;20030;-64
2024/01/05 13:05:41;;;;;;;15.13;13.03;;;;;;;;;;5012754;28;20403;-64
2024/01/05 13:08:07;;;;;;;16.33;13.97;;;;;;;;;;5011427;28;20029;-64
2024/01/05 13:10:34;;;;;;;32.07;22.40;;;;;;;;;;5011199;28;20372;-65
2024/01/05 13:13:00;;;;;;;26.42;19.13;;;;;;;;;;5012652;28;20037;-64
2024/01/05 13:15:26;;;;;;;25.00;20.50;;;;;;;;;;5012629;28;20056;-64
2024/01/05 13:17:52;;;;;;;25.97;21.17;;;;;;;;;;5012708;28;20453;-64
2024/01/05 13:20:24;;;;;;;27.37;20.87;;;;;;;;;;5026466;28;20103;-65
2024/01/05 13:22:59;;;;;;;30.33;22.10;;;;;;;;;;5012547;28;20022;-65
2024/01/05 13:25:25;;;;;;;29.30;22.75;;;;;;;;;;5011014;28;20052;-65
2024/01/05 13:27:52;;;;;;;32.00;23.93;;;;;;;;;;5012679;28;20025;-64
2024/01/05 13:30:18;;;;;;;27.93;20.43;;;;;;;;;;5012634;28;20026;-65
2024/01/05 13:32:44;;;;;;;30.97;22.20;;;;;;;;;;5010863;28;20472;-64
2024/01/05 13:35:11;;;;;;;30.37;20.63;;;;;;;;;;5006451;28;20026;-64
2024/01/05 13:37:37;;;;;;;28.10;21.90;;;;;;;;;;5010578;28;20554;-65
2024/01/05 13:40:05;;;;;;;36.33;24.00;;;;;;;;;;5012089;28;20050;-64
2024/01/05 13:42:32;;;;;;;28.27;21.57;;;;;;;;;;5012127;28;20026;-64
2024/01/05 13:44:59;;;;;;;26.00;19.37;;;;;;;;;;5012131;28;20113;-64
2024/01/05 13:47:27;;;;;;;30.53;21.47;;;;;;;;;;5011866;28;20468;-64
2024/01/05 13:49:53;;;;;;;29.13;19.53;;;;;;;;;;5014128;28;20155;-64
2024/01/05 13:52:19;;;;;;;25.73;19.03;;;;;;;;;;5007747;28;20018;-64
2024/01/05 13:54:45;;;;;;;28.40;18.50;;;;;;;;;;5010058;28;20026;-64
2024/01/05 13:57:11;;;;;;;24.10;17.10;;;;;;;;;;5008825;28;20444;-65
2024/01/05 13:59:38;;;;;;;27.07;19.03;;;;;;;;;;5007447;28;20160;-64
2024/01/05 14:02:05;;;;;;;19.93;15.73;;;;;;;;;;4998504;28;20113;-64
2024/01/05 14:04:31;;;;;;;24.17;16.43;;;;;;;;;;5019158;28;20040;-64
2024/01/05 14:06:57;;;;;;;20.83;16.27;;;;;;;;;;5032799;28;20105;-64
2024/01/05 14:09:24;;;;;;;26.20;18.67;;;;;;;;;;5010140;28;20018;-64
2024/01/05 14:11:50;;;;;;;21.80;15.70;;;;;;;;;;5011886;28;20369;-64
2024/01/05 14:14:16;;;;;;;18.87;13.90;;;;;;;;;;5024280;28;20084;-64
2024/01/05 14:16:42;;;;;;;16.97;12.63;;;;;;;;;;5012039;28;20018;-64
2024/01/05 14:19:09;;;;;;;16.87;12.57;;;;;;;;;;5010792;28;20018;-64
2024/01/05 14:21:35;;;;;;;21.53;12.70;;;;;;;;;;5021044;28;20548;-64
2024/01/05 14:24:01;;;;;;;13.13;9.93;;;;;;;;;;5016281;28;20105;-64
2024/01/05 14:26:27;;;;;;;13.40;10.80;;;;;;;;;;5011885;28;20022;-65
2024/01/05 14:28:54;;;;;;;11.77;8.83;;;;;;;;;;5011753;28;20030;-64
2024/01/05 14:31:26;;;;;;;13.73;10.13;;;;;;;;;;5011475;28;20029;-64
2024/01/05 14:33:53;;;;;;;10.57;7.57;;;;;;;;;;5011562;28;20065;-64
2024/01/05 14:36:19;;;;;;;16.47;9.70;;;;;;;;;;5010201;28;20380;-64
2024/01/05 14:38:45;;;;;;;12.90;9.50;;;;;;;;;;5021518;28;20030;-63
2024/01/05 14:41:11;;;;;;;15.20;10.77;;;;;;;;;;5015033;28;20406;-64
2024/01/05 14:55:51;;;;;;;10.23;7.73;;;;;;;;;;4996413;28;20527;-64
2024/01/05 14:58:17;;;;;;;9.73;6.67;;;;;;;;;;5008846;28;20026;-64
2024/01/05 15:00:43;;;;;;;10.00;7.37;;;;;;;;;;5011446;28;20026;-64
2024/01/05 15:03:09;;;;;;;9.80;7.33;;;;;;;;;;5011462;28;20380;-64
2024/01/05 15:05:35;;;;;;;9.90;6.97;;;;;;;;;;5011187;28;20109;-64
2024/01/05 15:08:03;;;;;;;9.37;6.87;;;;;;;;;;5011541;28;20025;-64
2024/01/05 15:10:31;;;;;;;11.30;7.90;;;;;;;;;;5010156;28;20100;-64
2024/01/05 15:12:59;;;;;;;10.73;8.00;;;;;;;;;;5023210;28;20021;-64
2024/01/05 15:15:25;;;;;;;12.77;8.60;;;;;;;;;;5002392;28;20113;-64
2024/01/05 15:17:51;;;;;;;13.17;9.83;;;;;;;;;;5014657;28;20045;-64